createdAt,value
2023-11-23T00:14:39.988Z,24.40
2023-11-23T00:30:04.999Z,24.40
2023-11-23T00:45:29.953Z,24.50
2023-11-23T01:00:55.991Z,24.50
2023-11-23T01:16:20.895Z,24.50
2023-11-23T01:31:46.939Z,24.30
2023-11-23T01:47:12.933Z,24.00
2023-11-23T02:02:37.943Z,23.70
2023-11-23T02:18:03.003Z,23.40
2023-11-23T02:33:28.011Z,23.10
2023-11-23T02:48:52.925Z,22.80
2023-11-23T03:04:17.910Z,22.50
2023-11-23T03:19:43.865Z,22.20
2023-11-23T03:35:08.890Z,21.90
2023-11-23T03:50:33.866Z,21.60
2023-11-23T04:05:58.956Z,21.30
2023-11-23T04:21:23.797Z,21.10
2023-11-23T04:36:49.781Z,20.90
2023-11-23T04:52:15.734Z,20.70
2023-11-23T05:07:40.845Z,20.50
2023-11-23T05:23:05.767Z,20.30
2023-11-23T05:38:30.766Z,20.10
2023-11-23T05:53:55.735Z,19.90
2023-11-23T06:09:20.820Z,19.80
2023-11-23T06:24:45.761Z,19.70
2023-11-23T06:40:10.712Z,19.50
2023-11-23T06:55:35.898Z,19.40
2023-11-23T07:11:00.739Z,19.20
2023-11-23T07:26:25.698Z,19.10
2023-11-23T07:41:50.695Z,19.10
2023-11-23T07:57:15.661Z,19.00
2023-11-23T08:12:41.711Z,18.90
2023-11-23T08:28:06.680Z,18.80
2023-11-23T08:43:32.645Z,19.10
2023-11-23T08:58:58.644Z,19.60
2023-11-23T09:14:24.675Z,19.90
2023-11-23T09:29:50.658Z,20.10
2023-11-23T09:45:16.688Z,20.20
2023-11-23T10:00:42.668Z,20.30
2023-11-23T10:16:07.687Z,20.30
2023-11-23T10:31:33.535Z,20.20
2023-11-23T10:46:58.584Z,20.20
2023-11-23T11:02:24.527Z,20.10
2023-11-23T11:17:49.687Z,20.10
2023-11-23T11:33:15.816Z,20.00
2023-11-23T11:48:41.636Z,20.00
2023-11-23T12:04:07.642Z,19.90
2023-11-23T12:19:33.501Z,19.90
2023-11-23T12:34:59.487Z,19.90
2023-11-23T12:50:25.466Z,19.90
2023-11-23T13:05:51.444Z,19.90
2023-11-23T13:21:17.584Z,19.80
2023-11-23T13:36:43.521Z,19.80
2023-11-23T13:52:09.508Z,19.80
2023-11-23T14:07:35.398Z,19.80
2023-11-23T14:23:01.492Z,19.80
2023-11-23T14:39:02.361Z,19.80
2023-11-23T14:54:34.888Z,19.70
2023-11-23T15:09:54.468Z,19.70
2023-11-23T15:25:21.488Z,19.70
2023-11-23T15:40:47.565Z,19.60
2023-11-23T15:56:13.534Z,19.70
2023-11-23T16:11:39.520Z,19.70
2023-11-23T16:27:04.463Z,19.60
2023-11-23T16:42:29.462Z,19.60
2023-11-23T16:57:54.390Z,19.60
2023-11-23T17:13:20.465Z,19.70
2023-11-23T17:28:46.448Z,20.00
2023-11-23T17:44:12.434Z,20.40
2023-11-23T17:59:46.704Z,20.80
2023-11-23T18:15:03.508Z,21.00
2023-11-23T18:30:29.711Z,21.30
2023-11-23T18:45:56.442Z,21.50
2023-11-23T19:01:22.483Z,21.70
2023-11-23T19:16:48.501Z,22.00
2023-11-23T19:32:14.602Z,22.20
2023-11-23T19:47:40.436Z,22.40
2023-11-23T20:03:07.763Z,22.70
2023-11-23T20:19:12.351Z,23.20
2023-11-23T20:34:37.591Z,23.20
2023-11-23T20:50:02.449Z,23.40
2023-11-23T21:05:27.500Z,23.60
2023-11-23T21:20:52.470Z,23.80
2023-11-23T21:36:18.535Z,23.90
2023-11-23T21:51:43.497Z,24.10
2023-11-23T22:07:09.564Z,24.40
2023-11-23T22:22:35.440Z,24.50
2023-11-23T22:38:00.549Z,24.50
2023-11-23T22:53:25.450Z,24.60
2023-11-23T23:08:50.407Z,24.50
2023-11-23T23:24:15.452Z,24.40
2023-11-23T23:39:40.409Z,24.70
2023-11-23T23:55:05.442Z,24.70
